CheckWX is a tool to help pilots better visualize weather data.  It is not intended as a substitute for an official pre-flight weather briefing.

12:20:50 UTC

KHCD METAR
Hutchinson Municipal-Butler Field Airport
Hutchinson, Minnesota, USA
Current

23 mins ago

KHCD 161158Z AUTO 00000KT 10SM CLR 21/20 A2987 RMK AO2 7//// T02050202 10224 20197
Observed
Jul-16 @ 11:58 UTC
Visibility
10 SM
Flight Rules
VFR
Cloud Levels
  • Clear skies
Temperature
21°C / 70°F
Dewpoint
20°C / 68°F
Humidity
94%
Altimeter
29.87" Hg
Pressure
1011.52 hPa
Previous

45 mins ago

KHCD 161136Z AUTO 00000KT 10SM CLR 20/20 A2986 RMK AO2 T02020198
Observed
Jul-16 @ 11:36 UTC
Visibility
10 SM
Flight Rules
VFR
Cloud Levels
  • Clear skies
Temperature
20°C / 68°F
Dewpoint
20°C / 68°F
Humidity
100%
Altimeter
29.86" Hg
Pressure
1011.22 hPa
Previous

1 hour ago

KHCD 161116Z AUTO 00000KT 10SM CLR 20/20 A2986 RMK AO2 T02020196
Observed
Jul-16 @ 11:16 UTC
Visibility
10 SM
Flight Rules
VFR
Cloud Levels
  • Clear skies
Temperature
20°C / 68°F
Dewpoint
20°C / 68°F
Humidity
100%
Altimeter
29.86" Hg
Pressure
1011.22 hPa